Time;durP1;ratioP1;P1;durP2;ratioP2;P2;SDS_P1;SDS_P2;PMS_P1;PMS_P2;Temp;Humidity;BMP_temperature;BMP_pressure;BME280_temperature;BME280_humidity;BME280_pressure;Samples;Min_cycle;Max_cycle;Signal;HPM_P1;HPM_P2
2023/03/01 00:03:19;;;;;;;;;;;3.20;48.70;;;0.84;52.75;102680.00;12255196;19;19939;-90
2023/03/01 00:07:24;;;;;;;;;;;3.20;48.70;;;0.91;52.65;102703.22;12248729;19;19947;-90
2023/03/01 00:11:33;;;;;;;;;;;3.10;48.60;;;0.94;52.57;102699.00;12254409;19;19915;-90
2023/03/01 00:15:38;;;;;;;;;;;3.20;48.60;;;1.18;52.41;102742.28;12249954;19;20282;-90
2023/03/01 00:19:40;;;;;;;;;;;3.40;48.70;;;0.87;52.46;102695.47;12256250;19;19939;-90
2023/03/01 00:23:42;;;;;;;;;;;3.10;48.70;;;0.97;52.81;102705.91;12252441;19;19919;-91
2023/03/01 00:27:44;;;;;;;;;;;3.30;48.70;;;0.73;52.65;102673.81;12249595;19;20348;-90
2023/03/01 00:31:47;;;;;;;;;;;3.20;48.70;;;0.80;52.66;102688.47;12253326;19;19925;-90
2023/03/01 00:35:51;;;;;;;;;;;3.00;48.60;;;1.00;52.63;102718.81;12251533;19;19949;-90
2023/03/01 00:39:52;;;;;;;;;;;3.00;48.60;;;0.79;52.62;102691.91;12252407;19;19935;-90
2023/03/01 00:43:55;;;;;;;;;;;3.20;48.70;;;0.66;52.56;102680.53;12251537;19;19917;-90
2023/03/01 00:47:57;;;;;;;;;;;2.90;48.60;;;1.20;52.68;102781.75;12248740;19;19918;-91
2023/03/01 00:51:58;;;;;;;;;;;2.90;48.60;;;0.65;52.77;102693.38;12251750;19;19923;-91
2023/03/01 00:56:00;;;;;;;;;;;3.20;48.70;;;0.77;52.70;102706.44;12247742;19;19990;-90
2023/03/01 01:00:04;;;;;;;;;;;2.80;48.50;;;0.46;52.51;102675.88;12249800;19;19921;-90
2023/03/01 01:04:10;;;;;;;;;;;2.70;48.40;;;0.70;52.50;102717.44;12252290;19;19911;-90
2023/03/01 01:08:12;;;;;;;;;;;2.70;48.40;;;0.22;52.66;102636.94;12259859;19;19925;-90
2023/03/01 01:12:16;;;;;;;;;;;2.60;48.40;;;0.83;52.70;102750.25;12265317;19;19919;-90
2023/03/01 01:16:19;;;;;;;;;;;2.60;48.50;;;0.55;52.75;102712.03;12264226;19;19923;-91
2023/03/01 01:20:21;;;;;;;;;;;2.50;48.50;;;0.24;52.60;102659.19;12264003;19;20317;-90
2023/03/01 01:24:22;;;;;;;;;;;2.40;48.50;;;0.25;52.69;102664.38;12264220;19;20333;-88
2023/03/01 01:28:23;;;;;;;;;;;2.70;48.70;;;0.23;52.65;102660.91;12259803;19;19944;-90
2023/03/01 01:32:28;;;;;;;;;;;2.60;48.70;;;0.23;52.59;102655.78;12262263;19;20316;-90
2023/03/01 01:36:30;;;;;;;;;;;2.40;48.70;;;0.13;52.66;102646.16;12262079;19;20272;-90
2023/03/01 01:40:32;;;;;;;;;;;2.40;48.70;;;0.13;52.74;102638.44;12264053;19;19919;-90
2023/03/01 01:44:36;;;;;;;;;;;2.50;48.80;;;0.05;52.60;102640.84;12264659;19;19944;-90
2023/03/01 01:48:52;;;;;;;;;;;2.30;48.70;;;0.10;52.57;102666.63;12259640;19;19918;-90
2023/03/01 01:52:56;;;;;;;;;;;2.30;48.60;;;0.07;52.77;102664.88;12259033;19;20292;-91
2023/03/01 01:57:01;;;;;;;;;;;2.40;48.70;;;-0.11;52.70;102634.59;12257330;19;19922;-90
2023/03/01 02:01:03;;;;;;;;;;;2.30;48.60;;;0.32;52.89;102707.31;12261430;19;19918;-90
2023/03/01 02:05:20;;;;;;;;;;;2.20;48.60;;;0.23;52.84;102707.16;12261867;19;19919;-90
2023/03/01 02:09:22;;;;;;;;;;;2.20;48.60;;;-0.07;52.76;102658.63;12260271;19;19919;-90
2023/03/01 02:13:24;;;;;;;;;;;2.20;48.60;;;-0.02;52.71;102669.84;12257547;19;19950;-91
2023/03/01 02:17:35;;;;;;;;;;;2.20;48.70;;;-0.09;52.79;102653.44;12253257;19;19923;-91
2023/03/01 02:21:58;;;;;;;;;;;2.20;48.70;;;0.35;52.82;102725.38;12259109;19;19919;-90
2023/03/01 02:26:42;;;;;;;;;;;2.10;48.60;;;-0.55;52.72;102590.03;12252769;19;20467;-90
2023/03/01 02:35:24;;;;;;;;;;;2.00;48.50;;;-0.51;52.71;102622.63;12255258;19;19918;-88
2023/03/01 02:40:11;;;;;;;;;;;2.00;48.60;;;-0.45;52.75;102639.00;12269772;19;20358;-90
2023/03/01 02:44:53;;;;;;;;;;;;;;;;;;;;;
2023/03/01 02:48:59;;;;;;;;;;;1.90;48.50;;;-0.42;52.89;102663.88;12248278;19;19914;-90
2023/03/01 02:53:38;;;;;;;;;;;1.80;48.50;;;-0.59;52.77;102639.56;12253766;19;20325;-90
2023/03/01 02:57:44;;;;;;;;;;;1.80;48.50;;;-0.21;52.92;102690.84;12251077;19;19903;-90
2023/03/01 03:01:48;;;;;;;;;;;1.80;48.50;;;-0.67;52.84;102612.03;12256597;19;19947;-90
2023/03/01 03:10:31;;;;;;;;;;;2.00;48.80;;;-0.82;52.80;102598.00;12256812;19;19918;-90
2023/03/01 03:14:43;;;;;;;;;;;1.70;48.70;;;-0.53;52.75;102642.25;12256768;19;20297;-90
2023/03/01 03:18:48;;;;;;;;;;;1.90;48.80;;;-0.34;52.90;102676.88;12251520;19;20348;-90
2023/03/01 03:22:54;;;;;;;;;;;1.70;48.70;;;-0.68;52.74;102617.97;12256053;19;19951;-90
2023/03/01 03:26:56;;;;;;;;;;;1.70;48.70;;;-0.76;52.97;102604.13;12248094;19;20264;-90
2023/03/01 03:30:58;;;;;;;;;;;1.90;48.80;;;-0.65;52.91;102609.50;12254629;19;20329;-90
2023/03/01 03:35:00;;;;;;;;;;;1.80;48.80;;;-0.67;52.82;102608.63;12250619;19;19923;-90
2023/03/01 03:39:05;;;;;;;;;;;1.60;48.70;;;-0.85;52.97;102585.97;12252554;19;19915;-90
2023/03/01 03:43:10;;;;;;;;;;;1.60;48.60;;;-0.25;53.04;102695.91;12253526;19;19914;-90
2023/03/01 03:47:15;;;;;;;;;;;1.90;48.70;;;-0.63;52.97;102625.78;12252557;19;20341;-90
2023/03/01 03:51:18;;;;;;;;;;;1.50;48.50;;;-0.60;52.77;102625.84;12255052;19;19926;-89
2023/03/01 03:55:22;;;;;;;;;;;1.70;48.60;;;-0.76;52.85;102604.13;12251862;19;20273;-90
2023/03/01 03:59:23;;;;;;;;;;;1.50;48.60;;;-0.80;52.92;102592.09;12252686;19;19919;-90
2023/03/01 04:03:32;;;;;;;;;;;1.50;48.60;;;-0.73;52.99;102609.34;12252368;19;19923;-90
2023/03/01 04:07:37;;;;;;;;;;;1.50;48.50;;;-0.86;52.88;102604.78;12247998;19;20369;-90
2023/03/01 04:11:39;;;;;;;;;;;1.70;48.60;;;-0.90;52.92;102588.44;12253240;19;20249;-90
2023/03/01 04:15:42;;;;;;;;;;;1.40;48.60;;;-0.97;52.86;102594.28;12250170;19;19921;-90
2023/03/01 04:19:46;;;;;;;;;;;1.40;48.50;;;-0.68;52.98;102653.91;12252613;19;19921;-90
2023/03/01 04:23:52;;;;;;;;;;;1.60;48.60;;;-1.01;52.92;102589.91;12250232;19;19937;-90
2023/03/01 04:27:58;;;;;;;;;;;1.30;48.50;;;-1.07;52.91;102578.66;12248782;19;19933;-90
2023/03/01 04:32:00;;;;;;;;;;;1.60;48.60;;;-1.24;52.85;102563.75;12248970;19;19914;-90
2023/03/01 04:36:05;;;;;;;;;;;1.30;48.60;;;-1.22;52.99;102562.06;12246745;19;19911;-90
2023/03/01 04:40:16;;;;;;;;;;;1.20;48.50;;;-1.26;52.90;102557.72;12246225;19;19919;-90
2023/03/01 04:44:22;;;;;;;;;;;1.20;48.50;;;-1.27;52.98;102563.69;12250771;19;19922;-90
2023/03/01 04:48:24;;;;;;;;;;;1.40;48.70;;;-1.42;52.88;102536.00;12246317;19;19930;-90
2023/03/01 04:52:26;;;;;;;;;;;1.40;48.70;;;-1.28;52.91;102577.31;12250311;19;19918;-90
2023/03/01 04:56:30;;;;;;;;;;;1.40;48.70;;;-1.19;53.03;102586.91;12246176;19;19947;-90
2023/03/01 05:00:31;;;;;;;;;;;1.10;48.60;;;-1.24;52.93;102583.38;12248480;19;20249;-90
2023/03/01 05:04:33;;;;;;;;;;;1.40;48.70;;;-0.95;53.04;102650.72;12246596;19;19952;-90
2023/03/01 05:08:38;;;;;;;;;;;1.30;48.70;;;-1.27;53.07;102583.28;12244393;19;20278;-90
2023/03/01 05:12:40;;;;;;;;;;;1.30;48.60;;;-1.37;52.98;102571.97;12248465;19;19914;-90
2023/03/01 05:16:45;;;;;;;;;;;1.10;48.50;;;-1.08;53.07;102626.50;12244529;19;19940;-90
2023/03/01 05:20:47;;;;;;;;;;;1.30;48.60;;;-1.38;52.97;102578.81;12246206;19;19910;-90
2023/03/01 05:24:48;;;;;;;;;;;1.20;48.70;;;-1.49;53.10;102572.53;12258248;19;19919;-90
2023/03/01 05:28:50;;;;;;;;;;;1.20;48.70;;;-1.06;53.05;102640.19;12241520;19;19923;-90
2023/03/01 05:32:58;;;;;;;;;;;1.20;48.70;;;-0.92;53.04;102658.47;12240425;19;20333;-90
2023/03/01 05:37:00;;;;;;;;;;;1.10;48.60;;;-1.42;52.99;102583.81;12240037;19;19915;-90
2023/03/01 05:41:04;;;;;;;;;;;1.00;48.60;;;-1.18;53.14;102619.41;12243800;19;19931;-90
2023/03/01 05:45:09;;;;;;;;;;;1.20;48.60;;;-1.62;53.05;102547.44;12243501;19;20448;-90
2023/03/01 05:49:13;;;;;;;;;;;0.80;48.40;;;-1.04;53.03;102647.94;12243383;19;20341;-90
2023/03/01 05:53:18;;;;;;;;;;;1.00;48.50;;;-1.58;52.92;102569.75;12254012;19;19926;-89
2023/03/01 05:57:20;;;;;;;;;;;1.00;48.50;;;-1.09;52.95;102655.50;12251798;19;19915;-90
2023/03/01 06:01:21;;;;;;;;;;;0.80;48.90;;;-1.31;53.08;102622.50;12257298;19;19915;-90
2023/03/01 06:05:24;;;;;;;;;;;0.70;48.50;;;-1.63;53.13;102566.22;12255976;19;19918;-90
2023/03/01 06:09:26;;;;;;;;;;;0.80;48.50;;;-1.65;53.19;102575.53;12256414;19;20337;-90
2023/03/01 06:13:27;;;;;;;;;;;0.90;48.60;;;-1.72;53.13;102566.84;12256154;19;19956;-90
2023/03/01 06:17:30;;;;;;;;;;;0.90;48.50;;;-1.46;53.26;102613.63;12254096;19;19911;-89
2023/03/01 06:21:32;;;;;;;;;;;0.90;48.50;;;-1.75;53.19;102565.94;12256717;19;19919;-89
2023/03/01 06:25:34;;;;;;;;;;;0.70;48.50;;;-1.40;53.02;102628.28;12253627;19;20718;-88
2023/03/01 06:29:35;;;;;;;;;;;0.90;48.60;;;-1.23;53.10;102662.00;12257823;19;19974;-89
2023/03/01 06:33:37;;;;;;;;;;;0.80;48.60;;;-1.37;53.06;102626.66;12256992;19;19918;-88
2023/03/01 06:37:40;;;;;;;;;;;0.70;48.50;;;-1.37;53.25;102630.91;12256179;19;20365;-87
2023/03/01 06:41:41;;;;;;;;;;;0.60;48.50;;;-1.46;53.05;102639.25;12253463;19;19907;-89
2023/03/01 06:45:45;;;;;;;;;;;0.60;48.60;;;-1.45;53.08;102628.16;12253404;19;19921;-89
2023/03/01 06:49:46;;;;;;;;;;;0.90;48.70;;;-1.76;53.16;102576.97;12257064;19;19922;-89
2023/03/01 06:53:48;;;;;;;;;;;0.80;48.60;;;-1.29;53.20;102665.28;12252983;19;19925;-86
2023/03/01 06:58:00;;;;;;;;;;;0.60;48.50;;;-1.26;53.20;102667.06;12253809;19;20313;-88
2023/03/01 07:02:01;;;;;;;;;;;0.60;48.60;;;-1.32;53.32;102657.53;12252883;19;19943;-88
2023/03/01 07:06:03;;;;;;;;;;;1.00;48.80;;;-1.57;53.19;102615.03;12252837;19;19915;-87
2023/03/01 07:10:05;;;;;;;;;;;0.70;48.70;;;-1.25;53.31;102666.22;12254776;19;20703;-88
2023/03/01 07:14:07;;;;;;;;;;;0.70;48.70;;;-1.27;53.37;102670.44;12253955;19;19942;-88
2023/03/01 07:18:09;;;;;;;;;;;1.00;48.90;;;-1.59;53.47;102598.78;12251044;19;19928;-88
2023/03/01 07:22:10;;;;;;;;;;;1.10;49.00;;;-1.57;53.38;102603.09;12255672;19;19941;-88
2023/03/01 07:26:12;;;;;;;;;;;0.80;48.80;;;-1.28;53.34;102649.06;12251073;19;19907;-89
2023/03/01 07:30:14;;;;;;;;;;;0.80;48.90;;;-1.20;53.45;102652.69;12257623;19;19926;-88
2023/03/01 07:34:15;;;;;;;;;;;0.90;49.00;;;-1.10;53.58;102658.91;12254025;19;19970;-88
2023/03/01 07:38:17;;;;;;;;;;;0.90;49.10;;;-1.07;53.54;102664.09;12252104;19;19911;-88
2023/03/01 07:42:18;;;;;;;;;;;1.00;49.20;;;-1.09;53.53;102645.25;12254516;19;20753;-87
2023/03/01 07:46:20;;;;;;;;;;;1.10;49.20;;;-0.94;53.63;102661.00;12254938;19;20362;-89
2023/03/01 07:50:22;;;;;;;;;;;1.20;49.30;;;-0.88;53.73;102649.16;12252961;19;19915;-89
2023/03/01 07:54:24;;;;;;;;;;;1.20;49.40;;;-0.80;53.54;102645.94;12242766;19;19918;-89
2023/03/01 07:58:25;;;;;;;;;;;1.40;49.50;;;-0.90;53.61;102621.78;12246806;19;20325;-90
2023/03/01 08:02:27;;;;;;;;;;;1.40;49.50;;;-0.56;53.87;102668.72;12251439;19;20307;-89
2023/03/01 08:06:29;;;;;;;;;;;1.50;49.60;;;-0.45;53.78;102674.94;12247875;19;19984;-89
2023/03/01 08:10:30;;;;;;;;;;;1.50;49.60;;;-0.60;54.04;102620.72;12255281;19;19914;-88
2023/03/01 08:14:32;;;;;;;;;;;1.60;49.90;;;-0.17;54.25;102651.56;12238750;19;19923;-89
2023/03/01 08:18:34;;;;;;;;;;;1.80;50.20;;;-0.28;54.56;102600.84;12245714;19;19942;-91
2023/03/01 08:22:35;;;;;;;;;;;2.10;50.50;;;0.29;54.56;102652.44;12246607;19;19923;-90
2023/03/01 08:26:37;;;;;;;;;;;2.30;50.90;;;0.47;54.52;102639.06;12246942;19;19911;-89
2023/03/01 08:30:38;;;;;;;;;;;2.50;51.00;;;0.49;54.76;102598.81;12249311;19;19933;-89
2023/03/01 08:34:39;;;;;;;;;;;2.80;51.30;;;1.00;54.65;102642.53;12248733;19;19966;-89
2023/03/01 08:38:41;;;;;;;;;;;3.20;51.40;;;1.30;54.75;102649.84;12243170;19;19919;-90
2023/03/01 08:42:43;;;;;;;;;;;3.40;51.20;;;1.38;54.63;102636.19;12242769;19;19951;-90
2023/03/01 08:46:45;;;;;;;;;;;3.80;51.20;;;1.68;54.63;102640.91;12244466;19;19922;-88
2023/03/01 08:50:46;;;;;;;;;;;3.80;51.10;;;1.29;54.63;102547.72;12247790;19;19918;-88
2023/03/01 08:54:48;;;;;;;;;;;4.00;51.00;;;1.78;55.01;102591.22;12245087;19;19945;-89
2023/03/01 08:58:50;;;;;;;;;;;4.20;51.10;;;2.38;55.10;102633.09;12246079;19;19911;-90
2023/03/01 09:02:51;;;;;;;;;;;4.50;51.00;;;2.54;55.14;102626.31;12240385;19;19937;-89
2023/03/01 09:06:52;;;;;;;;;;;4.70;51.10;;;2.79;55.09;102617.97;12243323;19;19919;-89
2023/03/01 09:10:54;;;;;;;;;;;5.00;51.10;;;2.71;55.21;102560.28;12248251;19;19911;-89
2023/03/01 09:14:55;;;;;;;;;;;5.20;51.10;;;3.33;55.18;102605.41;12246542;19;19943;-87
2023/03/01 09:18:56;;;;;;;;;;;5.50;51.00;;;3.54;55.52;102589.16;12245274;19;19911;-88
2023/03/01 09:22:59;;;;;;;;;;;5.80;51.00;;;3.84;55.34;102590.97;12248029;19;19926;-89
2023/03/01 09:27:01;;;;;;;;;;;6.00;51.00;;;4.21;55.35;102615.19;12251195;19;19911;-89
2023/03/01 09:31:03;;;;;;;;;;;6.40;50.90;;;4.34;55.27;102597.09;12258366;19;19954;-89
2023/03/01 09:35:06;;;;;;;;;;;6.60;50.70;;;4.25;55.37;102547.97;12255637;19;19947;-89
2023/03/01 09:39:07;;;;;;;;;;;6.80;50.70;;;4.62;55.32;102554.00;12258259;19;20345;-89
2023/03/01 09:43:21;;;;;;;;;;;7.30;50.70;;;5.08;55.54;102598.78;12257960;19;19911;-89
2023/03/01 09:47:29;;;;;;;;;;;7.30;50.40;;;5.45;55.17;102621.97;12254071;19;19914;-89
2023/03/01 09:51:33;;;;;;;;;;;7.60;49.70;;;5.58;54.94;102602.06;12258918;19;19936;-89
2023/03/01 09:55:48;;;;;;;;;;;8.00;49.20;;;5.86;54.94;102612.31;12252345;19;19915;-89
2023/03/01 09:59:57;;;;;;;;;;;8.00;49.20;;;5.89;54.84;102589.84;12259021;19;19943;-88
2023/03/01 10:04:17;;;;;;;;;;;8.20;48.70;;;6.23;54.88;102607.81;12259298;19;19935;-89
2023/03/01 10:08:41;;;;;;;;;;;8.30;49.30;;;6.42;55.05;102611.13;12248705;19;19919;-89
2023/03/01 10:12:44;;;;;;;;;;;8.50;49.40;;;6.55;55.13;102598.91;12257040;19;19919;-89
2023/03/01 10:17:02;;;;;;;;;;;8.70;49.40;;;6.72;55.00;102596.19;12254178;19;19919;-88
2023/03/01 10:21:16;;;;;;;;;;;8.90;49.70;;;6.95;54.83;102606.38;12249755;19;19923;-91
2023/03/01 10:25:36;;;;;;;;;;;9.10;49.50;;;7.00;54.82;102583.81;12254311;19;19922;-92
2023/03/01 10:29:47;;;;;;;;;;;9.20;49.30;;;6.95;54.79;102551.81;12255472;19;19919;-91
2023/03/01 10:33:54;;;;;;;;;;;9.40;48.60;;;7.29;54.90;102568.75;12255618;19;19915;-91
2023/03/01 10:38:13;;;;;;;;;;;9.50;48.70;;;7.21;54.67;102518.63;12265693;19;19918;-92
2023/03/01 10:42:36;;;;;;;;;;;9.70;49.00;;;7.57;54.58;102552.81;12266318;19;19974;-91
2023/03/01 10:46:37;;;;;;;;;;;9.80;48.70;;;7.43;54.64;102514.00;12252745;19;19930;-90
2023/03/01 10:50:48;;;;;;;;;;;9.90;48.10;;;7.60;54.60;102515.50;12258241;19;19997;-89
2023/03/01 10:54:57;;;;;;;;;;;10.00;48.10;;;7.79;54.59;102537.78;12267395;19;19915;-91
2023/03/01 10:59:03;;;;;;;;;;;10.10;48.50;;;8.15;54.44;102575.38;12260150;19;19934;-92
2023/03/01 11:03:23;;;;;;;;;;;10.20;47.20;;;8.25;54.45;102576.09;12262114;19;19914;-90
2023/03/01 11:07:26;;;;;;;;;;;10.30;48.20;;;8.21;54.26;102530.22;12252962;19;20367;-90
2023/03/01 11:11:35;;;;;;;;;;;10.40;48.20;;;8.47;54.26;102541.94;12254317;19;20272;-90
2023/03/01 11:15:36;;;;;;;;;;;10.50;48.00;;;8.53;54.16;102531.41;12249974;19;20312;-92
2023/03/01 11:19:38;;;;;;;;;;;10.60;47.10;;;8.56;54.09;102526.16;12254483;19;19923;-90
2023/03/01 11:23:43;;;;;;;;;;;10.70;47.90;;;8.78;54.17;102547.50;12256067;19;19931;-91
2023/03/01 11:27:48;;;;;;;;;;;10.70;47.20;;;8.86;53.97;102541.25;12253033;19;20257;-89
2023/03/01 11:31:50;;;;;;;;;;;10.80;47.90;;;8.88;53.87;102529.91;12252355;19;19918;-90
2023/03/01 11:36:20;;;;;;;;;;;10.90;47.90;;;8.99;53.74;102533.16;12250341;19;19915;-90
2023/03/01 11:40:33;;;;;;;;;;;10.90;47.60;;;9.07;53.85;102526.06;12253076;19;19931;-90
2023/03/01 11:44:36;;;;;;;;;;;10.90;47.60;;;9.08;53.82;102518.22;12252755;19;19923;-90
2023/03/01 11:53:23;;;;;;;;;;;11.20;47.90;;;9.38;53.70;102536.72;12251301;19;19918;-84
2023/03/01 11:57:36;;;;;;;;;;;11.30;46.80;;;9.45;53.62;102537.44;12246868;19;20424;-85
2023/03/01 12:01:50;;;;;;;;;;;11.30;47.70;;;9.42;53.53;102514.91;12252797;19;19915;-84
2023/03/01 12:06:03;;;;;;;;;;;11.40;47.80;;;9.57;53.59;102524.16;12248513;19;20298;-85
2023/03/01 12:10:23;;;;;;;;;;;11.40;47.50;;;9.47;53.41;102488.75;12249155;19;19915;-87
2023/03/01 12:14:37;;;;;;;;;;;11.50;47.60;;;9.73;53.51;102512.50;12248927;19;20309;-86
2023/03/01 12:18:41;;;;;;;;;;;11.50;47.50;;;9.78;53.26;102515.00;12248759;19;19939;-86
2023/03/01 12:22:46;;;;;;;;;;;11.60;47.40;;;9.83;53.28;102505.31;12251665;19;20349;-87
2023/03/01 12:26:53;;;;;;;;;;;11.60;47.30;;;9.88;53.16;102499.97;12253723;19;20314;-85
2023/03/01 12:31:31;;;;;;;;;;;11.70;46.70;;;9.93;53.32;102488.53;12253305;19;19910;-86
2023/03/01 12:36:03;;;;;;;;;;;11.70;47.00;;;9.97;53.09;102482.34;12249036;19;19903;-84
2023/03/01 12:40:38;;;;;;;;;;;11.70;42.10;;;10.02;52.97;102477.03;12251650;19;19931;-86
2023/03/01 12:44:58;;;;;;;;;;;11.80;45.30;;;10.07;53.07;102467.34;12258581;19;19922;-85
2023/03/01 12:49:18;;;;;;;;;;;11.80;46.10;;;10.11;52.87;102463.72;12255558;19;19925;-85
2023/03/01 12:53:24;;;;;;;;;;;11.90;45.60;;;10.16;52.86;102463.63;12246653;19;20211;-85
2023/03/01 12:57:36;;;;;;;;;;;11.90;44.80;;;10.13;52.56;102451.50;12248240;19;20325;-85
2023/03/01 13:01:53;;;;;;;;;;;11.90;42.50;;;10.16;52.58;102456.66;12256730;19;20021;-84
2023/03/01 13:06:04;;;;;;;;;;;11.90;42.90;;;10.17;52.55;102447.06;12263659;19;19919;-85
2023/03/01 13:10:31;;;;;;;;;;;11.90;45.30;;;10.14;52.53;102449.75;12264252;19;19970;-86
2023/03/01 13:14:32;;;;;;;;;;;11.90;45.50;;;10.18;52.53;102449.63;12259430;19;19915;-85
2023/03/01 13:18:34;;;;;;;;;;;11.90;46.00;;;10.15;52.49;102441.00;12258829;19;19915;-85
2023/03/01 13:22:36;;;;;;;;;;;11.90;45.50;;;9.90;52.29;102394.66;12263286;19;19914;-86
2023/03/01 13:27:11;;;;;;;;;;;11.90;45.70;;;10.11;52.33;102423.72;12260277;19;20252;-84
2023/03/01 13:31:19;;;;;;;;;;;11.90;45.80;;;10.17;52.29;102437.47;12268271;19;20021;-85
2023/03/01 13:35:21;;;;;;;;;;;11.90;45.90;;;10.17;52.26;102427.03;12261913;19;19934;-86
2023/03/01 13:39:28;;;;;;;;;;;11.80;45.90;;;10.15;52.24;102417.50;12272654;19;20045;-85
2023/03/01 13:43:37;;;;;;;;;;;11.80;43.40;;;10.07;52.06;102420.34;12273386;19;19910;-85
2023/03/01 13:47:41;;;;;;;;;;;11.80;44.90;;;10.14;52.19;102406.22;12266803;19;19914;-85
2023/03/01 13:51:46;;;;;;;;;;;11.80;45.60;;;10.11;52.21;102390.66;12272733;19;19919;-84
2023/03/01 13:55:50;;;;;;;;;;;11.80;46.00;;;10.18;51.95;102405.25;12268157;19;19923;-85
2023/03/01 13:59:52;;;;;;;;;;;11.80;46.00;;;10.06;52.11;102376.84;12269577;19;19914;-84
2023/03/01 14:03:53;;;;;;;;;;;11.80;46.10;;;9.84;51.96;102342.63;12270473;19;20333;-84
2023/03/01 14:07:55;;;;;;;;;;;11.80;45.70;;;10.15;51.78;102396.63;12267453;19;19919;-84
2023/03/01 14:12:21;;;;;;;;;;;11.90;44.40;;;10.11;51.80;102374.97;12268081;19;20416;-84
2023/03/01 14:16:36;;;;;;;;;;;11.80;45.10;;;10.17;51.66;102380.03;12266083;19;19915;-84
2023/03/01 14:20:43;;;;;;;;;;;11.80;45.50;;;10.02;51.74;102349.13;12267864;19;19915;-83
2023/03/01 14:24:59;;;;;;;;;;;11.80;45.90;;;10.16;51.77;102374.88;12268405;19;19956;-84
2023/03/01 14:29:01;;;;;;;;;;;11.80;46.00;;;9.89;51.74;102335.56;12269057;19;19911;-84
2023/03/01 14:33:06;;;;;;;;;;;11.80;45.80;;;10.07;51.77;102356.81;12267610;19;19911;-84
2023/03/01 14:37:40;;;;;;;;;;;11.80;42.10;;;10.18;51.54;102366.09;12263597;19;19930;-84
2023/03/01 14:41:41;;;;;;;;;;;11.80;43.90;;;10.17;51.61;102351.31;12262968;19;19919;-84
2023/03/01 14:45:48;;;;;;;;;;;11.80;45.10;;;9.94;51.42;102310.19;12264288;19;19915;-83
2023/03/01 14:49:53;;;;;;;;;;;11.80;45.40;;;9.97;51.44;102307.50;12264557;19;19922;-83
2023/03/01 14:53:55;;;;;;;;;;;11.80;43.30;;;10.12;51.21;102344.50;12262934;19;20276;-84
2023/03/01 14:57:58;;;;;;;;;;;11.80;44.60;;;10.20;51.43;102342.53;12260514;19;19919;-84
2023/03/01 15:02:00;;;;;;;;;;;11.80;45.00;;;10.03;51.35;102318.66;12265534;19;19923;-83
2023/03/01 15:06:02;;;;;;;;;;;11.80;45.90;;;10.17;51.38;102330.44;12260325;19;20644;-84
2023/03/01 15:10:05;;;;;;;;;;;11.80;45.90;;;10.18;51.37;102329.56;12260184;19;20246;-83
2023/03/01 15:14:28;;;;;;;;;;;11.80;46.40;;;10.10;51.30;102318.47;12259250;19;19922;-84
2023/03/01 15:18:29;;;;;;;;;;;11.80;46.10;;;10.19;51.31;102344.31;12256976;19;19914;-83
2023/03/01 15:22:31;;;;;;;;;;;11.80;45.40;;;10.20;51.29;102332.94;12254662;19;19934;-84
2023/03/01 15:26:40;;;;;;;;;;;11.80;45.90;;;10.23;51.11;102346.81;12252765;19;19927;-83
2023/03/01 15:30:41;;;;;;;;;;;11.80;46.20;;;9.91;51.19;102293.75;12254319;19;19922;-84
2023/03/01 15:34:43;;;;;;;;;;;11.80;46.40;;;10.16;51.12;102341.78;12254142;19;19915;-83
2023/03/01 15:38:54;;;;;;;;;;;11.80;46.30;;;10.10;51.08;102320.19;12254707;19;19922;-83
2023/03/01 15:42:56;;;;;;;;;;;11.80;45.90;;;10.16;51.14;102323.50;12256460;19;19911;-83
2023/03/01 15:46:58;;;;;;;;;;;11.80;46.30;;;9.75;51.05;102268.09;12255131;19;19926;-83
2023/03/01 15:51:01;;;;;;;;;;;11.80;46.30;;;10.11;50.76;102324.53;12256284;19;19921;-84
2023/03/01 15:55:06;;;;;;;;;;;11.80;46.40;;;10.13;51.01;102320.13;12255529;19;19947;-84
2023/03/01 15:59:11;;;;;;;;;;;11.70;46.40;;;10.10;50.91;102328.91;12257268;19;19930;-83
2023/03/01 16:03:12;;;;;;;;;;;11.70;46.50;;;10.04;50.79;102321.22;12254221;19;20336;-84
2023/03/01 16:07:15;;;;;;;;;;;11.60;46.50;;;9.97;50.94;102319.69;12255303;19;19974;-83
2023/03/01 16:11:18;;;;;;;;;;;11.60;46.50;;;9.89;50.96;102313.81;12255181;19;20337;-83
2023/03/01 16:15:22;;;;;;;;;;;11.50;46.50;;;9.88;50.69;102314.72;12253499;19;19968;-84
2023/03/01 16:19:24;;;;;;;;;;;11.40;46.60;;;9.75;50.88;102298.53;12256727;19;20339;-83
2023/03/01 16:23:28;;;;;;;;;;;11.40;46.60;;;9.43;50.66;102260.25;12256779;19;19927;-83
2023/03/01 16:27:30;;;;;;;;;;;11.40;46.60;;;9.57;50.76;102285.97;12254470;19;19922;-83
2023/03/01 16:31:31;;;;;;;;;;;11.20;46.70;;;9.47;50.63;102288.81;12254691;19;19935;-84
2023/03/01 16:35:33;;;;;;;;;;;11.30;46.70;;;9.45;50.66;102300.16;12238049;19;19926;-83
2023/03/01 16:39:38;;;;;;;;;;;11.10;46.70;;;9.26;50.55;102289.34;12254605;19;19919;-83
2023/03/01 16:43:40;;;;;;;;;;;11.00;46.60;;;9.06;50.57;102277.66;12258381;19;19919;-84
2023/03/01 16:47:42;;;;;;;;;;;10.90;46.60;;;9.11;50.48;102306.22;12257069;19;20342;-83
2023/03/01 16:51:44;;;;;;;;;;;10.70;46.50;;;9.06;50.69;102308.91;12257910;19;19911;-83
2023/03/01 16:55:52;;;;;;;;;;;10.70;46.60;;;8.93;50.50;102298.81;12254371;19;19922;-83
2023/03/01 16:59:53;;;;;;;;;;;10.60;46.70;;;8.92;50.35;102315.34;12257054;19;19919;-83
2023/03/01 17:03:55;;;;;;;;;;;10.50;46.70;;;8.89;50.58;102331.91;12252406;19;19915;-83
2023/03/01 17:07:59;;;;;;;;;;;10.30;46.60;;;8.66;50.30;102316.78;12251115;19;20322;-83
2023/03/01 17:12:00;;;;;;;;;;;10.30;46.60;;;8.67;50.49;102341.94;12253384;19;19923;-83
2023/03/01 17:16:10;;;;;;;;;;;10.10;46.50;;;8.48;50.46;102327.56;12251639;19;19910;-83
2023/03/01 17:20:12;;;;;;;;;;;10.00;46.50;;;8.39;50.36;102336.44;12257286;19;19915;-83
2023/03/01 17:24:13;;;;;;;;;;;9.90;46.50;;;8.26;50.50;102320.16;12253338;19;19934;-83
2023/03/01 17:28:16;;;;;;;;;;;9.80;46.50;;;8.21;50.54;102337.63;12249732;19;20329;-83
2023/03/01 17:32:18;;;;;;;;;;;9.70;46.60;;;8.17;50.46;102346.38;12251289;19;19918;-82
2023/03/01 17:36:19;;;;;;;;;;;9.60;46.70;;;7.98;50.49;102332.84;12244234;19;19931;-82
2023/03/01 17:40:21;;;;;;;;;;;9.50;46.70;;;7.93;50.29;102338.13;12248226;19;19914;-83
2023/03/01 17:44:22;;;;;;;;;;;9.40;46.60;;;7.83;50.14;102331.41;12251234;19;19978;-83
2023/03/01 17:48:24;;;;;;;;;;;9.30;46.60;;;7.75;50.35;102341.09;12252689;19;19924;-83
2023/03/01 17:52:26;;;;;;;;;;;9.20;46.60;;;7.66;50.19;102354.22;12262567;19;19917;-83
2023/03/01 17:56:27;;;;;;;;;;;9.10;46.70;;;7.56;50.35;102344.84;12256547;19;19923;-83
2023/03/01 18:00:29;;;;;;;;;;;9.00;46.70;;;7.55;50.36;102359.59;12260679;19;20326;-82
2023/03/01 18:04:31;;;;;;;;;;;8.90;46.80;;;7.46;50.27;102355.41;12261241;19;19923;-82
2023/03/01 18:08:33;;;;;;;;;;;8.80;46.80;;;7.39;50.23;102356.38;12255660;19;19942;-83
2023/03/01 18:12:34;;;;;;;;;;;8.80;46.90;;;7.17;50.42;102340.25;12261102;19;20345;-82
2023/03/01 18:16:38;;;;;;;;;;;8.70;46.80;;;7.04;50.44;102336.97;12267357;19;19954;-83
2023/03/01 18:20:39;;;;;;;;;;;8.60;46.90;;;7.04;50.37;102349.97;12275203;19;19907;-83
2023/03/01 18:24:41;;;;;;;;;;;8.50;46.90;;;6.89;50.23;102337.22;12276061;19;19919;-84
2023/03/01 18:28:46;;;;;;;;;;;8.30;46.80;;;6.81;50.53;102346.84;12268826;19;20331;-83
2023/03/01 18:32:50;;;;;;;;;;;8.20;46.80;;;6.47;50.30;102300.53;12273135;19;19974;-83
2023/03/01 18:36:54;;;;;;;;;;;8.10;46.90;;;6.62;50.50;102334.09;12266400;19;19918;-83
2023/03/01 18:40:56;;;;;;;;;;;8.10;46.90;;;6.61;50.33;102340.16;12249937;19;19953;-83
2023/03/01 18:44:58;;;;;;;;;;;8.00;46.90;;;6.54;50.42;102341.13;12260629;19;19918;-83
2023/03/01 18:48:59;;;;;;;;;;;7.90;46.90;;;6.50;50.39;102342.03;12255895;19;19926;-83
2023/03/01 18:53:00;;;;;;;;;;;7.80;46.90;;;6.36;50.37;102328.38;12256946;19;19922;-83
2023/03/01 18:57:02;;;;;;;;;;;7.80;47.00;;;6.20;50.34;102325.94;12254178;19;20273;-83